createdAt,value
2023-03-16T00:00:09.757Z,24.05
2023-03-16T00:02:36.852Z,26.98
2023-03-16T00:05:04.265Z,24.60
2023-03-16T00:07:31.413Z,25.42
2023-03-16T00:09:58.546Z,26.08
2023-03-16T00:12:26.473Z,28.65
2023-03-16T00:14:54.467Z,27.50
2023-03-16T00:17:21.905Z,24.95
2023-03-16T00:19:55.506Z,33.55
2023-03-16T00:22:28.709Z,27.35
2023-03-16T00:24:56.430Z,28.15
2023-03-16T00:27:25.993Z,28.60
2023-03-16T00:29:57.195Z,24.30
2023-03-16T00:32:27.414Z,25.13
2023-03-16T00:37:23.895Z,23.80
2023-03-16T00:39:52.578Z,26.27
2023-03-16T00:42:20.522Z,22.98
2023-03-16T00:44:47.896Z,26.02
2023-03-16T00:47:15.416Z,32.45
2023-03-16T00:49:44.256Z,23.67
2023-03-16T00:52:16.340Z,24.10
2023-03-16T00:54:45.272Z,22.58
2023-03-16T00:57:14.991Z,24.02
2023-03-16T00:59:42.601Z,21.10
2023-03-16T01:02:11.794Z,25.75
2023-03-16T01:04:40.300Z,21.52
2023-03-16T01:07:12.778Z,23.45
2023-03-16T01:09:41.213Z,19.15
2023-03-16T01:12:15.171Z,23.33
2023-03-16T01:14:46.036Z,19.15
2023-03-16T01:17:14.174Z,24.65
2023-03-16T01:19:42.101Z,24.98
2023-03-16T01:22:11.897Z,21.58
2023-03-16T01:24:40.132Z,23.50
2023-03-16T01:27:07.881Z,22.80
2023-03-16T01:29:35.424Z,25.48
2023-03-16T01:32:02.781Z,20.63
2023-03-16T01:34:30.297Z,20.58
2023-03-16T01:36:57.696Z,18.38
2023-03-16T01:39:28.138Z,24.63
2023-03-16T01:41:55.174Z,20.02
2023-03-16T01:44:30.709Z,20.42
2023-03-16T01:47:03.617Z,19.15
2023-03-16T01:49:34.263Z,19.77
2023-03-16T01:52:10.326Z,19.58
2023-03-16T01:54:46.316Z,23.88
2023-03-16T01:57:20.239Z,19.83
2023-03-16T01:59:53.917Z,24.92
2023-03-16T02:02:27.377Z,22.10
2023-03-16T02:05:27.153Z,21.02
2023-03-16T02:07:58.906Z,17.15
2023-03-16T02:10:29.385Z,24.13
2023-03-16T02:12:58.213Z,21.48
2023-03-16T02:15:25.909Z,20.55
2023-03-16T02:17:53.193Z,24.95
2023-03-16T02:20:44.301Z,18.58
2023-03-16T02:25:57.818Z,23.10
2023-03-16T02:28:42.841Z,19.67
2023-03-16T02:31:10.529Z,19.98
2023-03-16T02:33:37.798Z,17.90
2023-03-16T02:36:07.352Z,20.85
2023-03-16T02:38:34.511Z,23.20
2023-03-16T02:41:19.296Z,19.50
2023-03-16T02:44:14.818Z,23.00
2023-03-16T02:46:44.142Z,20.55
2023-03-16T02:49:27.861Z,20.77
2023-03-16T02:51:55.106Z,17.48
2023-03-16T02:54:22.238Z,20.83
2023-03-16T02:56:49.388Z,19.45
2023-03-16T02:59:16.773Z,26.05
2023-03-16T03:01:43.886Z,17.35
2023-03-16T03:04:11.127Z,18.02
2023-03-16T03:06:38.355Z,18.08
2023-03-16T03:09:06.388Z,19.42
2023-03-16T03:11:33.702Z,19.52
2023-03-16T03:14:00.743Z,19.33
2023-03-16T03:16:28.448Z,21.20
2023-03-16T03:18:56.978Z,17.65
2023-03-16T03:21:24.389Z,19.92
2023-03-16T03:23:51.947Z,21.35
2023-03-16T03:26:20.050Z,19.88
2023-03-16T03:28:48.321Z,21.47
2023-03-16T03:31:22.158Z,20.50
2023-03-16T03:33:51.137Z,17.40
2023-03-16T03:36:18.297Z,24.30
2023-03-16T03:38:46.456Z,13.95
2023-03-16T03:41:13.550Z,14.10
2023-03-16T03:43:41.231Z,18.10
2023-03-16T03:46:13.806Z,15.57
2023-03-16T03:48:41.298Z,20.83
2023-03-16T03:51:08.344Z,19.52
2023-03-16T03:53:47.129Z,19.08
2023-03-16T03:56:14.333Z,14.95
2023-03-16T03:58:41.569Z,17.90
2023-03-16T04:01:09.698Z,16.23
2023-03-16T04:03:36.926Z,19.65
2023-03-16T04:06:08.207Z,18.33
2023-03-16T04:08:36.139Z,13.85
2023-03-16T04:11:04.585Z,17.13
2023-03-16T04:13:31.715Z,16.13
2023-03-16T04:16:05.245Z,20.20
2023-03-16T04:18:39.579Z,18.02
2023-03-16T04:21:14.175Z,20.63
2023-03-16T04:23:42.728Z,16.75
2023-03-16T04:26:10.878Z,18.70
2023-03-16T04:28:38.146Z,17.67
2023-03-16T04:31:07.600Z,16.38
2023-03-16T04:33:40.298Z,14.90
2023-03-16T04:36:07.728Z,17.27
2023-03-16T04:38:37.047Z,19.15
2023-03-16T04:41:05.901Z,20.10
2023-03-16T04:43:40.655Z,16.92
2023-03-16T04:46:14.891Z,16.92
2023-03-16T04:48:42.078Z,19.30
2023-03-16T04:51:09.511Z,16.85
2023-03-16T04:53:40.482Z,15.50
2023-03-16T04:56:19.903Z,16.50
2023-03-16T04:58:53.837Z,17.00
2023-03-16T05:01:23.967Z,15.50
2023-03-16T05:03:54.787Z,16.67
2023-03-16T05:06:22.541Z,19.08
2023-03-16T05:08:49.904Z,17.00
2023-03-16T05:11:17.416Z,15.75
2023-03-16T05:13:54.871Z,13.65
2023-03-16T05:16:22.519Z,16.08
2023-03-16T05:18:50.577Z,15.77
2023-03-16T05:21:17.714Z,15.15
2023-03-16T05:23:57.858Z,14.70
2023-03-16T05:26:27.899Z,13.40
2023-03-16T05:28:56.098Z,17.05
2023-03-16T05:31:29.067Z,14.05
2023-03-16T05:33:59.897Z,14.15
2023-03-16T05:36:27.196Z,15.55
2023-03-16T05:38:59.592Z,17.98
2023-03-16T05:41:32.240Z,14.75
2023-03-16T05:44:04.730Z,15.32
2023-03-16T05:46:52.134Z,15.65
2023-03-16T05:49:19.385Z,16.67
2023-03-16T05:51:46.672Z,13.35
2023-03-16T05:54:14.158Z,12.73
2023-03-16T05:56:45.113Z,12.90
2023-03-16T05:59:12.156Z,14.65
2023-03-16T06:01:40.415Z,13.32
2023-03-16T06:04:08.183Z,13.82
2023-03-16T06:06:39.904Z,16.80
2023-03-16T06:09:14.270Z,15.48
2023-03-16T06:11:42.267Z,14.55
2023-03-16T06:14:09.563Z,13.27
2023-03-16T06:16:37.213Z,15.85
2023-03-16T06:19:04.381Z,13.27
2023-03-16T06:21:33.351Z,16.15
2023-03-16T06:24:09.454Z,11.70
2023-03-16T06:26:37.806Z,10.10
2023-03-16T06:29:08.005Z,9.38
2023-03-16T06:31:37.433Z,14.98
2023-03-16T06:34:05.313Z,13.85
2023-03-16T06:36:32.487Z,10.90
2023-03-16T06:39:01.719Z,12.48
2023-03-16T06:41:34.961Z,10.90
2023-03-16T06:44:03.068Z,17.60
2023-03-16T06:46:30.492Z,11.43
2023-03-16T06:49:01.151Z,13.90
2023-03-16T06:51:28.546Z,12.38
2023-03-16T06:53:55.712Z,13.77
2023-03-16T06:56:23.378Z,10.10
2023-03-16T06:58:50.516Z,12.82
2023-03-16T07:01:17.970Z,12.90
2023-03-16T07:03:45.180Z,13.30
2023-03-16T07:06:20.705Z,12.55
2023-03-16T07:08:47.861Z,11.23
2023-03-16T07:11:15.383Z,16.58
2023-03-16T07:13:42.590Z,11.60
2023-03-16T07:16:10.547Z,11.68
2023-03-16T07:18:40.087Z,15.05
2023-03-16T07:21:10.984Z,18.45
2023-03-16T07:23:38.961Z,13.68
2023-03-16T07:26:08.458Z,11.25
2023-03-16T07:28:39.803Z,16.40
2023-03-16T07:31:07.500Z,14.93
2023-03-16T07:33:39.303Z,13.38
2023-03-16T07:36:10.973Z,18.67
2023-03-16T07:38:44.168Z,13.27
2023-03-16T07:41:12.726Z,13.68
2023-03-16T07:43:41.076Z,10.63
2023-03-16T07:46:13.962Z,13.27
2023-03-16T07:48:45.181Z,14.60
2023-03-16T07:51:14.074Z,13.55
2023-03-16T07:53:43.424Z,14.43
2023-03-16T07:56:47.428Z,14.82
2023-03-16T07:59:24.063Z,13.75
2023-03-16T08:01:51.312Z,12.57
2023-03-16T08:04:18.501Z,15.70
2023-03-16T08:06:46.216Z,14.57
2023-03-16T08:09:14.619Z,14.18
2023-03-16T08:11:42.112Z,12.07
2023-03-16T08:14:09.345Z,15.35
2023-03-16T08:16:58.423Z,12.38
2023-03-16T08:19:27.700Z,11.93
2023-03-16T08:22:01.775Z,13.00
2023-03-16T08:24:36.143Z,15.18
2023-03-16T08:27:04.910Z,11.20
2023-03-16T08:29:34.745Z,9.63
2023-03-16T08:32:03.906Z,12.25
2023-03-16T08:34:40.169Z,16.48
2023-03-16T08:37:10.015Z,15.32
2023-03-16T08:39:37.268Z,13.43
2023-03-16T08:42:09.208Z,13.82
2023-03-16T08:44:44.311Z,10.73
2023-03-16T08:47:12.331Z,12.70
2023-03-16T08:49:42.730Z,13.00
2023-03-16T08:52:13.554Z,14.93
2023-03-16T08:54:49.739Z,10.35
2023-03-16T08:57:23.716Z,16.80
2023-03-16T08:59:51.598Z,20.65
2023-03-16T09:02:18.903Z,12.38
2023-03-16T09:04:46.285Z,12.90
2023-03-16T09:07:13.810Z,8.57
2023-03-16T09:09:41.045Z,10.63
2023-03-16T09:12:08.687Z,9.52
2023-03-16T09:14:37.861Z,8.07
2023-03-16T09:17:05.434Z,8.73
2023-03-16T09:19:50.095Z,9.38
2023-03-16T09:22:18.596Z,9.57
2023-03-16T09:24:45.903Z,9.77
2023-03-16T09:27:13.360Z,7.70
2023-03-16T09:29:41.341Z,8.07
2023-03-16T09:32:09.817Z,9.90
2023-03-16T09:34:37.020Z,8.65
2023-03-16T09:37:04.624Z,10.13
2023-03-16T09:39:32.271Z,10.55
2023-03-16T09:42:13.312Z,7.93
2023-03-16T09:44:52.613Z,6.63
2023-03-16T09:47:27.563Z,9.13
2023-03-16T09:49:58.784Z,8.88
2023-03-16T09:52:35.504Z,7.78
2023-03-16T09:55:36.876Z,11.07
2023-03-16T09:58:10.985Z,7.05
2023-03-16T10:00:47.911Z,5.43
2023-03-16T10:03:34.637Z,4.63
2023-03-16T10:06:04.311Z,5.72
2023-03-16T10:08:39.441Z,5.32
2023-03-16T10:11:33.395Z,4.85
2023-03-16T10:14:33.237Z,6.57
2023-03-16T10:17:35.745Z,4.75
2023-03-16T10:20:09.230Z,6.55
2023-03-16T10:22:42.619Z,6.80
2023-03-16T10:25:27.990Z,5.20
2023-03-16T10:27:56.852Z,7.85
2023-03-16T10:30:33.649Z,7.07
2023-03-16T10:33:11.935Z,8.25
2023-03-16T10:36:04.013Z,6.15
2023-03-16T10:38:40.283Z,5.43
2023-03-16T10:41:29.526Z,6.90
2023-03-16T10:44:08.703Z,9.73
2023-03-16T10:46:40.906Z,12.60
2023-03-16T10:49:42.359Z,7.47
2023-03-16T10:52:19.832Z,5.75
2023-03-16T10:55:11.659Z,5.53
2023-03-16T10:57:43.060Z,5.40
2023-03-16T11:00:41.836Z,5.35
2023-03-16T11:03:26.222Z,7.50
2023-03-16T11:06:05.228Z,6.38
2023-03-16T11:08:35.790Z,5.60
2023-03-16T11:11:12.133Z,4.55
2023-03-16T11:13:45.473Z,4.80
2023-03-16T11:16:32.406Z,4.78
2023-03-16T11:19:22.525Z,7.57
2023-03-16T11:21:57.345Z,3.85
2023-03-16T11:25:02.383Z,5.95
2023-03-16T11:28:01.549Z,4.90
2023-03-16T11:30:35.523Z,6.50
2023-03-16T11:33:04.329Z,4.78
2023-03-16T11:35:59.332Z,4.65
2023-03-16T11:39:04.902Z,6.60
2023-03-16T11:42:04.202Z,6.95
2023-03-16T11:45:12.751Z,6.03
2023-03-16T11:48:09.849Z,6.70
2023-03-16T11:51:05.586Z,7.22
2023-03-16T11:53:38.637Z,4.65
2023-03-16T11:56:15.712Z,6.32
2023-03-16T11:59:22.045Z,7.03
2023-03-16T12:02:26.447Z,4.57
2023-03-16T12:05:11.873Z,4.78
2023-03-16T12:08:04.559Z,6.55
2023-03-16T12:10:57.876Z,3.75
2023-03-16T12:13:57.306Z,5.18
2023-03-16T12:16:48.677Z,8.73
2023-03-16T12:19:25.066Z,12.02
2023-03-16T12:22:17.451Z,7.90
2023-03-16T12:24:48.256Z,5.93
2023-03-16T12:27:22.815Z,4.72
2023-03-16T12:30:03.938Z,5.05
2023-03-16T12:32:39.184Z,4.65
2023-03-16T12:35:18.255Z,7.10
2023-03-16T12:37:56.908Z,5.63
2023-03-16T12:40:34.058Z,6.57
2023-03-16T12:43:19.166Z,7.25
2023-03-16T12:45:58.750Z,5.45
2023-03-16T12:48:32.716Z,3.85
2023-03-16T12:51:05.353Z,3.03
2023-03-16T12:53:52.054Z,5.22
2023-03-16T12:56:30.379Z,5.07
2023-03-16T12:59:00.449Z,5.15
2023-03-16T13:01:31.415Z,6.18
2023-03-16T13:04:24.129Z,4.78
2023-03-16T13:07:02.054Z,4.68
2023-03-16T13:09:32.947Z,5.63
2023-03-16T13:12:05.215Z,7.10
2023-03-16T13:14:44.462Z,5.47
2023-03-16T13:17:17.349Z,3.78
2023-03-16T13:19:47.987Z,5.25
2023-03-16T13:22:31.396Z,6.22
2023-03-16T13:25:25.742Z,4.70
2023-03-16T13:27:56.178Z,3.55
2023-03-16T13:30:29.947Z,6.15
2023-03-16T13:33:04.546Z,4.93
2023-03-16T13:35:32.284Z,7.03
2023-03-16T13:38:06.823Z,6.35
2023-03-16T13:40:35.106Z,7.85
2023-03-16T13:43:02.321Z,3.90
2023-03-16T13:45:34.008Z,4.07
2023-03-16T13:48:05.681Z,2.63
2023-03-16T13:50:34.236Z,3.78
2023-03-16T13:53:04.986Z,3.67
2023-03-16T13:55:35.021Z,3.15
2023-03-16T13:58:04.247Z,4.18
2023-03-16T14:00:35.128Z,8.25
2023-03-16T14:03:14.665Z,7.63
2023-03-16T14:05:41.743Z,3.20
2023-03-16T14:08:22.114Z,3.40
2023-03-16T14:13:25.865Z,6.43
2023-03-16T14:16:00.323Z,4.85
2023-03-16T14:18:37.771Z,4.70
2023-03-16T14:21:09.939Z,3.70
2023-03-16T14:23:46.731Z,2.60
2023-03-16T14:26:27.944Z,5.43
2023-03-16T14:28:57.527Z,7.55
2023-03-16T14:31:38.448Z,3.53
2023-03-16T14:34:20.262Z,7.20
2023-03-16T14:36:47.624Z,6.80
2023-03-16T14:39:19.771Z,4.13
2023-03-16T14:41:52.520Z,7.35
2023-03-16T14:44:24.368Z,4.88
2023-03-16T14:46:54.472Z,3.05
2023-03-16T14:49:36.629Z,6.00
2023-03-16T14:52:15.918Z,5.18
2023-03-16T14:54:43.100Z,3.38
2023-03-16T14:57:17.106Z,2.78
2023-03-16T14:59:44.304Z,5.40
2023-03-16T15:02:25.533Z,8.98
2023-03-16T15:04:53.036Z,6.20
2023-03-16T15:07:27.301Z,5.22
2023-03-16T15:09:56.742Z,8.80
2023-03-16T15:12:26.304Z,10.10
2023-03-16T15:15:12.507Z,5.15
2023-03-16T15:17:39.663Z,9.55
2023-03-16T15:20:07.749Z,6.38
2023-03-16T15:22:38.590Z,3.40
2023-03-16T15:25:24.904Z,3.50
2023-03-16T15:27:53.193Z,5.13
2023-03-16T15:30:26.569Z,5.20
2023-03-16T15:32:53.888Z,7.43
2023-03-16T15:35:21.504Z,5.65
2023-03-16T15:37:49.343Z,5.90
2023-03-16T15:40:28.737Z,4.90
2023-03-16T15:42:56.307Z,5.40
2023-03-16T15:45:23.923Z,5.50
2023-03-16T15:47:52.561Z,4.32
2023-03-16T15:50:21.963Z,3.70
2023-03-16T15:53:00.169Z,3.40
2023-03-16T15:55:42.711Z,5.63
2023-03-16T15:58:20.502Z,7.75
2023-03-16T16:00:48.970Z,4.82
2023-03-16T16:03:16.216Z,3.58
2023-03-16T16:05:43.415Z,4.95
2023-03-16T16:08:10.657Z,6.57
2023-03-16T16:10:39.758Z,3.63
2023-03-16T16:13:11.941Z,3.95
2023-03-16T16:15:39.818Z,3.47
2023-03-16T16:18:35.246Z,7.88
2023-03-16T16:21:05.446Z,6.57
2023-03-16T16:26:04.017Z,5.55
2023-03-16T16:28:33.142Z,4.97
2023-03-16T16:31:03.940Z,5.25
2023-03-16T16:33:33.955Z,4.72
2023-03-16T16:36:04.725Z,5.05
2023-03-16T16:38:32.625Z,5.28
2023-03-16T16:41:02.220Z,5.88
2023-03-16T16:43:37.761Z,6.20
2023-03-16T16:46:24.166Z,6.13
2023-03-16T16:48:58.054Z,6.10
2023-03-16T16:51:28.012Z,5.68
2023-03-16T16:53:57.871Z,6.30
2023-03-16T16:56:33.900Z,5.00
2023-03-16T16:59:12.891Z,7.05
2023-03-16T17:01:40.309Z,12.48
2023-03-16T17:04:17.517Z,10.43
2023-03-16T17:06:46.081Z,11.50
2023-03-16T17:09:14.583Z,11.60
2023-03-16T17:11:44.155Z,9.13
2023-03-16T17:14:17.219Z,7.05
2023-03-16T17:16:47.348Z,7.15
2023-03-16T17:19:20.343Z,8.25
2023-03-16T17:21:49.020Z,8.55
2023-03-16T17:24:17.085Z,10.15
2023-03-16T17:27:04.828Z,8.38
2023-03-16T17:29:33.988Z,9.18
2023-03-16T17:32:17.147Z,8.68
2023-03-16T17:34:44.518Z,9.50
2023-03-16T17:37:16.683Z,10.68
2023-03-16T17:39:44.015Z,11.10
2023-03-16T17:42:20.584Z,8.27
2023-03-16T17:44:51.025Z,10.70
2023-03-16T17:47:23.764Z,8.23
2023-03-16T17:49:52.127Z,9.07
2023-03-16T17:52:23.768Z,33.72
2023-03-16T17:54:53.575Z,47.92
2023-03-16T17:57:29.776Z,55.92
2023-03-16T17:59:57.902Z,25.48
2023-03-16T18:02:39.885Z,20.65
2023-03-16T18:05:18.431Z,19.92
2023-03-16T18:07:45.658Z,28.08
2023-03-16T18:10:18.166Z,32.70
2023-03-16T18:12:48.388Z,26.80
2023-03-16T18:17:44.931Z,13.20
2023-03-16T18:20:34.511Z,14.25
2023-03-16T18:23:10.643Z,15.38
2023-03-16T18:25:42.382Z,15.18
2023-03-16T18:28:11.420Z,11.82
2023-03-16T18:30:39.988Z,17.23
2023-03-16T18:33:17.395Z,21.00
2023-03-16T18:35:44.823Z,23.83
2023-03-16T18:38:32.503Z,20.95
2023-03-16T18:41:02.309Z,23.77
2023-03-16T18:43:29.990Z,26.50
2023-03-16T18:45:57.382Z,27.70
2023-03-16T18:48:33.590Z,29.45
2023-03-16T18:51:01.332Z,23.15
2023-03-16T18:53:29.188Z,20.23
2023-03-16T18:55:57.617Z,24.63
2023-03-16T18:58:25.579Z,18.10
2023-03-16T19:01:00.774Z,26.42
2023-03-16T19:03:43.702Z,28.75
2023-03-16T19:06:41.771Z,23.63
2023-03-16T19:09:23.000Z,20.85
2023-03-16T19:11:50.898Z,22.38
2023-03-16T19:14:24.685Z,24.38
2023-03-16T19:16:52.471Z,22.25
2023-03-16T19:19:22.116Z,20.42
2023-03-16T19:21:52.942Z,18.10
2023-03-16T19:24:50.954Z,20.80
2023-03-16T19:27:31.670Z,20.27
2023-03-16T19:29:59.098Z,20.40
2023-03-16T19:32:26.638Z,17.92
2023-03-16T19:34:54.002Z,20.42
2023-03-16T19:37:23.975Z,19.05
2023-03-16T19:39:51.466Z,15.98
2023-03-16T19:42:28.402Z,15.52
2023-03-16T19:44:55.584Z,21.10
2023-03-16T19:47:30.996Z,17.52
2023-03-16T19:49:59.349Z,22.33
2023-03-16T19:52:28.439Z,19.00
2023-03-16T19:54:55.657Z,25.37
2023-03-16T19:57:23.251Z,23.00
2023-03-16T19:59:57.320Z,22.88
2023-03-16T20:02:36.582Z,24.85
2023-03-16T20:05:05.226Z,20.25
2023-03-16T20:07:38.236Z,19.83
2023-03-16T20:10:06.780Z,18.88
2023-03-16T20:12:37.227Z,20.90
2023-03-16T20:15:04.804Z,18.48
2023-03-16T20:17:33.196Z,17.65
2023-03-16T20:20:00.340Z,18.80
2023-03-16T20:22:28.865Z,16.92
2023-03-16T20:24:58.263Z,17.40
2023-03-16T20:27:27.958Z,18.17
2023-03-16T20:29:56.060Z,16.67
2023-03-16T20:32:26.217Z,16.70
2023-03-16T20:37:26.475Z,14.95
2023-03-16T20:39:56.421Z,14.35
2023-03-16T20:42:31.263Z,17.45
2023-03-16T20:44:59.493Z,16.25
2023-03-16T20:47:27.406Z,15.77
2023-03-16T20:49:57.826Z,16.98
2023-03-16T20:52:30.852Z,16.92
2023-03-16T20:54:58.491Z,18.77
2023-03-16T20:57:29.306Z,20.13
2023-03-16T20:59:56.703Z,17.85
2023-03-16T21:02:41.786Z,15.40
2023-03-16T21:05:12.859Z,18.02
2023-03-16T21:07:40.102Z,13.60
2023-03-16T21:10:07.786Z,12.73
2023-03-16T21:12:39.586Z,19.40
2023-03-16T21:15:25.757Z,15.73
2023-03-16T21:18:00.185Z,15.48
2023-03-16T21:20:30.987Z,13.25
2023-03-16T21:22:58.910Z,17.60
2023-03-16T21:25:32.952Z,16.27
2023-03-16T21:28:03.345Z,19.27
2023-03-16T21:30:40.201Z,18.30
2023-03-16T21:33:19.157Z,19.63
2023-03-16T21:35:46.680Z,18.40
2023-03-16T21:38:19.548Z,22.65
2023-03-16T21:40:48.077Z,17.80
2023-03-16T21:43:15.814Z,15.88
2023-03-16T21:45:43.916Z,16.70
2023-03-16T21:48:28.269Z,16.05
2023-03-16T21:50:56.043Z,22.35
2023-03-16T21:53:28.869Z,28.30
2023-03-16T21:55:57.423Z,29.08
2023-03-16T21:58:25.095Z,26.02
2023-03-16T22:00:54.838Z,14.73
2023-03-16T22:03:24.971Z,16.50
2023-03-16T22:08:29.413Z,21.95
2023-03-16T22:10:57.372Z,20.35
2023-03-16T22:13:24.669Z,18.73
2023-03-16T22:15:53.413Z,21.60
2023-03-16T22:18:40.753Z,26.45
2023-03-16T22:21:42.130Z,30.88
2023-03-16T22:24:22.349Z,31.95
2023-03-16T22:29:28.549Z,34.15
2023-03-16T22:31:59.645Z,29.73
2023-03-16T22:34:39.597Z,32.00
2023-03-16T22:37:08.185Z,33.83
2023-03-16T22:39:38.605Z,34.08
2023-03-16T22:42:38.936Z,33.80
2023-03-16T22:45:23.166Z,41.15
2023-03-16T22:47:50.935Z,31.98
2023-03-16T22:50:19.889Z,36.00
2023-03-16T22:52:50.223Z,34.72
2023-03-16T22:55:23.791Z,30.45
2023-03-16T22:57:55.738Z,34.90
2023-03-16T23:00:22.986Z,37.08
2023-03-16T23:02:50.408Z,34.28
2023-03-16T23:05:21.979Z,33.78
2023-03-16T23:07:48.933Z,35.40
2023-03-16T23:10:21.409Z,32.08
2023-03-16T23:12:49.525Z,29.42
2023-03-16T23:15:28.799Z,35.25
2023-03-16T23:17:56.619Z,33.03
2023-03-16T23:20:25.286Z,35.03
2023-03-16T23:22:53.343Z,31.80
2023-03-16T23:25:22.137Z,33.92
2023-03-16T23:27:51.735Z,33.15
2023-03-16T23:30:25.924Z,31.00
2023-03-16T23:32:54.770Z,27.42
2023-03-16T23:35:27.725Z,31.20
2023-03-16T23:37:55.924Z,37.20
2023-03-16T23:40:26.230Z,30.88
2023-03-16T23:42:56.108Z,32.55
2023-03-16T23:45:28.427Z,31.67
2023-03-16T23:47:57.725Z,35.75
2023-03-16T23:50:29.159Z,37.13
2023-03-16T23:52:56.433Z,28.50
2023-03-16T23:55:24.292Z,35.83
2023-03-16T23:57:51.280Z,39.03
